sensor_id;sensor_type;location;lat;lon;timestamp;temperature;humidity
20337;DHT22;10326;53.660;10.200;2023-09-19T00:00:59;20.60;88.90
20337;DHT22;10326;53.660;10.200;2023-09-19T00:03:29;20.60;89.00
20337;DHT22;10326;53.660;10.200;2023-09-19T00:05:59;20.50;89.00
20337;DHT22;10326;53.660;10.200;2023-09-19T00:08:27;20.50;89.00
20337;DHT22;10326;53.660;10.200;2023-09-19T00:10:56;20.50;89.10
20337;DHT22;10326;53.660;10.200;2023-09-19T00:13:30;20.40;89.10
20337;DHT22;10326;53.660;10.200;2023-09-19T00:15:59;20.40;89.10
20337;DHT22;10326;53.660;10.200;2023-09-19T00:18:26;20.40;89.30
20337;DHT22;10326;53.660;10.200;2023-09-19T00:20:58;20.40;89.30
20337;DHT22;10326;53.660;10.200;2023-09-19T00:23:25;20.40;89.40
20337;DHT22;10326;53.660;10.200;2023-09-19T00:25:52;20.40;89.40
20337;DHT22;10326;53.660;10.200;2023-09-19T00:28:23;20.40;89.30
20337;DHT22;10326;53.660;10.200;2023-09-19T00:30:52;20.30;89.40
20337;DHT22;10326;53.660;10.200;2023-09-19T00:33:22;20.40;89.50
20337;DHT22;10326;53.660;10.200;2023-09-19T00:35:50;20.40;89.60
20337;DHT22;10326;53.660;10.200;2023-09-19T00:38:21;20.40;89.70
20337;DHT22;10326;53.660;10.200;2023-09-19T00:40:54;20.30;89.70
20337;DHT22;10326;53.660;10.200;2023-09-19T00:43:23;20.30;89.60
20337;DHT22;10326;53.660;10.200;2023-09-19T00:45:53;20.30;89.60
20337;DHT22;10326;53.660;10.200;2023-09-19T00:48:23;20.30;89.80
20337;DHT22;10326;53.660;10.200;2023-09-19T00:50:55;20.30;89.90
20337;DHT22;10326;53.660;10.200;2023-09-19T00:53:24;20.30;89.90
20337;DHT22;10326;53.660;10.200;2023-09-19T00:55:56;20.20;89.90
20337;DHT22;10326;53.660;10.200;2023-09-19T00:58:26;20.20;90.00
20337;DHT22;10326;53.660;10.200;2023-09-19T01:01:01;20.20;90.00
20337;DHT22;10326;53.660;10.200;2023-09-19T01:03:36;20.20;90.00
20337;DHT22;10326;53.660;10.200;2023-09-19T01:06:06;20.20;90.00
20337;DHT22;10326;53.660;10.200;2023-09-19T01:08:40;20.20;90.00
20337;DHT22;10326;53.660;10.200;2023-09-19T01:11:21;20.20;90.10
20337;DHT22;10326;53.660;10.200;2023-09-19T01:14:05;20.20;90.20
20337;DHT22;10326;53.660;10.200;2023-09-19T01:16:45;20.20;90.20
20337;DHT22;10326;53.660;10.200;2023-09-19T01:19:51;20.20;90.20
20337;DHT22;10326;53.660;10.200;2023-09-19T01:23:06;20.20;90.30
20337;DHT22;10326;53.660;10.200;2023-09-19T01:26:06;20.20;90.30
20337;DHT22;10326;53.660;10.200;2023-09-19T01:28:51;20.20;90.30
20337;DHT22;10326;53.660;10.200;2023-09-19T01:31:53;20.20;90.20
20337;DHT22;10326;53.660;10.200;2023-09-19T01:34:23;20.20;90.20
20337;DHT22;10326;53.660;10.200;2023-09-19T01:36:52;20.20;90.10
20337;DHT22;10326;53.660;10.200;2023-09-19T01:39:36;20.20;90.20
20337;DHT22;10326;53.660;10.200;2023-09-19T01:45:05;20.20;90.30
20337;DHT22;10326;53.660;10.200;2023-09-19T01:52:21;20.20;90.30
20337;DHT22;10326;53.660;10.200;2023-09-19T01:55:24;20.20;90.20
20337;DHT22;10326;53.660;10.200;2023-09-19T01:57:58;20.20;90.10
20337;DHT22;10326;53.660;10.200;2023-09-19T02:00:37;20.20;90.10
20337;DHT22;10326;53.660;10.200;2023-09-19T02:06:33;20.20;90.00
20337;DHT22;10326;53.660;10.200;2023-09-19T02:13:12;20.10;89.70
20337;DHT22;10326;53.660;10.200;2023-09-19T02:16:38;20.10;89.60
20337;DHT22;10326;53.660;10.200;2023-09-19T02:18:53;20.00;89.40
20337;DHT22;10326;53.660;10.200;2023-09-19T02:21:32;20.00;89.40
20337;DHT22;10326;53.660;10.200;2023-09-19T02:24:01;20.00;89.10
20337;DHT22;10326;53.660;10.200;2023-09-19T02:26:35;20.00;89.20
20337;DHT22;10326;53.660;10.200;2023-09-19T02:29:16;20.00;89.00
20337;DHT22;10326;53.660;10.200;2023-09-19T02:31:43;19.90;88.90
20337;DHT22;10326;53.660;10.200;2023-09-19T02:34:13;19.90;89.00
20337;DHT22;10326;53.660;10.200;2023-09-19T02:38:52;19.90;89.10
20337;DHT22;10326;53.660;10.200;2023-09-19T02:40:35;19.90;89.10
20337;DHT22;10326;53.660;10.200;2023-09-19T02:43:15;19.90;89.20
20337;DHT22;10326;53.660;10.200;2023-09-19T02:46:03;19.80;89.20
20337;DHT22;10326;53.660;10.200;2023-09-19T02:49:29;19.80;89.30
20337;DHT22;10326;53.660;10.200;2023-09-19T02:51:57;19.80;89.50
20337;DHT22;10326;53.660;10.200;2023-09-19T02:54:27;19.80;89.50
20337;DHT22;10326;53.660;10.200;2023-09-19T02:57:01;19.80;89.60
20337;DHT22;10326;53.660;10.200;2023-09-19T02:59:37;19.70;89.50
20337;DHT22;10326;53.660;10.200;2023-09-19T03:02:06;19.70;89.70
20337;DHT22;10326;53.660;10.200;2023-09-19T03:04:39;19.70;89.70
20337;DHT22;10326;53.660;10.200;2023-09-19T03:07:07;19.70;89.70
20337;DHT22;10326;53.660;10.200;2023-09-19T03:09:37;19.70;89.80
20337;DHT22;10326;53.660;10.200;2023-09-19T03:12:06;19.70;90.10
20337;DHT22;10326;53.660;10.200;2023-09-19T03:14:43;19.70;89.80
20337;DHT22;10326;53.660;10.200;2023-09-19T03:17:55;19.70;89.70
20337;DHT22;10326;53.660;10.200;2023-09-19T03:20:54;19.70;89.70
20337;DHT22;10326;53.660;10.200;2023-09-19T03:23:31;19.70;89.60
20337;DHT22;10326;53.660;10.200;2023-09-19T03:25:59;19.70;89.60
20337;DHT22;10326;53.660;10.200;2023-09-19T03:28:47;19.70;89.60
20337;DHT22;10326;53.660;10.200;2023-09-19T03:31:16;19.70;89.60
20337;DHT22;10326;53.660;10.200;2023-09-19T03:33:47;19.60;89.40
20337;DHT22;10326;53.660;10.200;2023-09-19T03:36:16;19.60;89.40
20337;DHT22;10326;53.660;10.200;2023-09-19T03:38:45;19.60;89.30
20337;DHT22;10326;53.660;10.200;2023-09-19T03:41:13;19.60;89.30
20337;DHT22;10326;53.660;10.200;2023-09-19T03:43:44;19.60;89.30
20337;DHT22;10326;53.660;10.200;2023-09-19T03:46:16;19.60;89.30
20337;DHT22;10326;53.660;10.200;2023-09-19T03:48:49;19.50;89.30
20337;DHT22;10326;53.660;10.200;2023-09-19T03:51:24;19.50;89.20
20337;DHT22;10326;53.660;10.200;2023-09-19T03:53:52;19.50;89.60
20337;DHT22;10326;53.660;10.200;2023-09-19T03:56:19;19.50;89.00
20337;DHT22;10326;53.660;10.200;2023-09-19T03:58:46;19.50;89.10
20337;DHT22;10326;53.660;10.200;2023-09-19T04:01:15;19.50;89.20
20337;DHT22;10326;53.660;10.200;2023-09-19T04:03:44;19.50;89.20
20337;DHT22;10326;53.660;10.200;2023-09-19T04:06:19;19.50;89.10
20337;DHT22;10326;53.660;10.200;2023-09-19T04:08:59;19.40;88.90
20337;DHT22;10326;53.660;10.200;2023-09-19T04:11:27;19.40;88.70
20337;DHT22;10326;53.660;10.200;2023-09-19T04:13:55;19.40;88.60
20337;DHT22;10326;53.660;10.200;2023-09-19T04:16:23;19.40;88.60
20337;DHT22;10326;53.660;10.200;2023-09-19T04:19:01;19.40;88.50
20337;DHT22;10326;53.660;10.200;2023-09-19T04:21:30;19.40;88.40
20337;DHT22;10326;53.660;10.200;2023-09-19T04:23:58;19.30;88.30
20337;DHT22;10326;53.660;10.200;2023-09-19T04:26:25;19.30;88.30
20337;DHT22;10326;53.660;10.200;2023-09-19T04:28:52;19.30;88.00
20337;DHT22;10326;53.660;10.200;2023-09-19T04:31:21;19.20;87.80
20337;DHT22;10326;53.660;10.200;2023-09-19T04:33:48;19.20;87.60
20337;DHT22;10326;53.660;10.200;2023-09-19T04:36:15;19.10;87.30
20337;DHT22;10326;53.660;10.200;2023-09-19T04:38:44;19.10;87.10
20337;DHT22;10326;53.660;10.200;2023-09-19T04:41:12;19.00;86.90
20337;DHT22;10326;53.660;10.200;2023-09-19T04:43:44;19.00;87.10
20337;DHT22;10326;53.660;10.200;2023-09-19T04:46:13;19.00;86.80
20337;DHT22;10326;53.660;10.200;2023-09-19T04:48:43;18.90;86.70
20337;DHT22;10326;53.660;10.200;2023-09-19T04:51:11;18.90;86.60
20337;DHT22;10326;53.660;10.200;2023-09-19T04:53:39;18.80;86.60
20337;DHT22;10326;53.660;10.200;2023-09-19T04:56:11;18.80;86.60
20337;DHT22;10326;53.660;10.200;2023-09-19T04:58:39;18.80;86.40
20337;DHT22;10326;53.660;10.200;2023-09-19T05:01:06;18.80;86.40
20337;DHT22;10326;53.660;10.200;2023-09-19T05:03:44;18.70;86.40
20337;DHT22;10326;53.660;10.200;2023-09-19T05:06:12;18.70;86.10
20337;DHT22;10326;53.660;10.200;2023-09-19T05:08:39;18.70;86.00
20337;DHT22;10326;53.660;10.200;2023-09-19T05:11:15;18.60;85.90
20337;DHT22;10326;53.660;10.200;2023-09-19T05:13:42;18.60;85.60
20337;DHT22;10326;53.660;10.200;2023-09-19T05:16:09;18.50;85.90
20337;DHT22;10326;53.660;10.200;2023-09-19T05:18:40;18.50;85.90
20337;DHT22;10326;53.660;10.200;2023-09-19T05:21:07;18.50;86.00
20337;DHT22;10326;53.660;10.200;2023-09-19T05:23:36;18.40;85.90
20337;DHT22;10326;53.660;10.200;2023-09-19T05:26:03;18.40;85.90
20337;DHT22;10326;53.660;10.200;2023-09-19T05:28:37;18.40;85.80
20337;DHT22;10326;53.660;10.200;2023-09-19T05:31:05;18.40;85.80
20337;DHT22;10326;53.660;10.200;2023-09-19T05:33:34;18.40;85.90
20337;DHT22;10326;53.660;10.200;2023-09-19T05:36:04;18.40;86.00
20337;DHT22;10326;53.660;10.200;2023-09-19T05:38:31;18.30;85.80
20337;DHT22;10326;53.660;10.200;2023-09-19T05:40:58;18.30;85.90
20337;DHT22;10326;53.660;10.200;2023-09-19T05:43:41;18.30;85.90
20337;DHT22;10326;53.660;10.200;2023-09-19T05:46:09;18.30;85.90
20337;DHT22;10326;53.660;10.200;2023-09-19T05:48:37;18.30;86.00
20337;DHT22;10326;53.660;10.200;2023-09-19T05:51:19;18.20;86.00
20337;DHT22;10326;53.660;10.200;2023-09-19T05:53:48;18.20;86.00
20337;DHT22;10326;53.660;10.200;2023-09-19T05:56:17;18.20;85.90
20337;DHT22;10326;53.660;10.200;2023-09-19T05:59:04;18.20;85.90
20337;DHT22;10326;53.660;10.200;2023-09-19T06:01:37;18.20;85.80
20337;DHT22;10326;53.660;10.200;2023-09-19T06:04:05;18.20;85.90
20337;DHT22;10326;53.660;10.200;2023-09-19T06:06:32;18.20;85.70
20337;DHT22;10326;53.660;10.200;2023-09-19T06:09:02;18.20;85.90
20337;DHT22;10326;53.660;10.200;2023-09-19T06:11:31;18.10;85.90
20337;DHT22;10326;53.660;10.200;2023-09-19T06:14:00;18.10;85.80
20337;DHT22;10326;53.660;10.200;2023-09-19T06:16:29;18.20;86.00
20337;DHT22;10326;53.660;10.200;2023-09-19T06:18:58;18.20;86.10
20337;DHT22;10326;53.660;10.200;2023-09-19T06:21:27;18.20;86.10
20337;DHT22;10326;53.660;10.200;2023-09-19T06:23:55;18.20;86.20
20337;DHT22;10326;53.660;10.200;2023-09-19T06:26:23;18.30;86.60
20337;DHT22;10326;53.660;10.200;2023-09-19T06:28:53;18.30;86.10
20337;DHT22;10326;53.660;10.200;2023-09-19T06:31:22;18.30;86.30
20337;DHT22;10326;53.660;10.200;2023-09-19T06:33:53;18.30;86.10
20337;DHT22;10326;53.660;10.200;2023-09-19T06:36:20;18.30;86.00
20337;DHT22;10326;53.660;10.200;2023-09-19T06:38:48;18.40;86.10
20337;DHT22;10326;53.660;10.200;2023-09-19T06:41:17;18.40;86.00
20337;DHT22;10326;53.660;10.200;2023-09-19T06:43:45;18.40;85.90
20337;DHT22;10326;53.660;10.200;2023-09-19T06:46:38;18.40;85.90
20337;DHT22;10326;53.660;10.200;2023-09-19T06:49:17;18.40;85.80
20337;DHT22;10326;53.660;10.200;2023-09-19T06:51:55;18.40;85.80
20337;DHT22;10326;53.660;10.200;2023-09-19T06:54:23;18.40;85.80
20337;DHT22;10326;53.660;10.200;2023-09-19T06:56:52;18.40;85.90
20337;DHT22;10326;53.660;10.200;2023-09-19T06:59:21;18.40;85.80
20337;DHT22;10326;53.660;10.200;2023-09-19T07:02:09;18.50;85.60
20337;DHT22;10326;53.660;10.200;2023-09-19T07:04:39;18.50;85.60
20337;DHT22;10326;53.660;10.200;2023-09-19T07:07:09;18.50;85.80
20337;DHT22;10326;53.660;10.200;2023-09-19T07:09:40;18.50;85.80
20337;DHT22;10326;53.660;10.200;2023-09-19T07:12:09;18.50;85.60
20337;DHT22;10326;53.660;10.200;2023-09-19T07:14:39;18.50;85.70
20337;DHT22;10326;53.660;10.200;2023-09-19T07:17:07;18.50;85.70
20337;DHT22;10326;53.660;10.200;2023-09-19T07:19:35;18.60;85.70
20337;DHT22;10326;53.660;10.200;2023-09-19T07:22:04;18.60;85.90
20337;DHT22;10326;53.660;10.200;2023-09-19T07:24:36;18.60;85.70
20337;DHT22;10326;53.660;10.200;2023-09-19T07:27:08;18.60;85.80
20337;DHT22;10326;53.660;10.200;2023-09-19T07:29:57;18.60;85.50
20337;DHT22;10326;53.660;10.200;2023-09-19T07:32:44;18.60;85.80
20337;DHT22;10326;53.660;10.200;2023-09-19T07:35:11;18.70;85.90
20337;DHT22;10326;53.660;10.200;2023-09-19T07:37:40;18.70;85.90
20337;DHT22;10326;53.660;10.200;2023-09-19T07:40:08;18.70;85.90
20337;DHT22;10326;53.660;10.200;2023-09-19T07:42:36;18.70;85.70
20337;DHT22;10326;53.660;10.200;2023-09-19T07:45:07;18.70;85.80
20337;DHT22;10326;53.660;10.200;2023-09-19T07:47:37;18.80;85.90
20337;DHT22;10326;53.660;10.200;2023-09-19T07:50:11;18.70;85.60
20337;DHT22;10326;53.660;10.200;2023-09-19T07:52:42;18.80;85.90
20337;DHT22;10326;53.660;10.200;2023-09-19T07:55:15;18.80;85.80
20337;DHT22;10326;53.660;10.200;2023-09-19T07:57:43;18.80;85.60
20337;DHT22;10326;53.660;10.200;2023-09-19T08:00:16;18.80;85.60
20337;DHT22;10326;53.660;10.200;2023-09-19T08:02:47;18.80;85.70
20337;DHT22;10326;53.660;10.200;2023-09-19T08:05:14;18.80;85.70
20337;DHT22;10326;53.660;10.200;2023-09-19T08:07:44;18.70;85.80
20337;DHT22;10326;53.660;10.200;2023-09-19T08:10:14;18.70;85.70
20337;DHT22;10326;53.660;10.200;2023-09-19T08:12:45;18.70;85.30
20337;DHT22;10326;53.660;10.200;2023-09-19T08:15:14;18.70;85.20
20337;DHT22;10326;53.660;10.200;2023-09-19T08:17:42;18.70;85.20
20337;DHT22;10326;53.660;10.200;2023-09-19T08:20:11;18.70;85.10
20337;DHT22;10326;53.660;10.200;2023-09-19T08:22:48;18.60;85.10
20337;DHT22;10326;53.660;10.200;2023-09-19T08:25:23;18.60;85.40
20337;DHT22;10326;53.660;10.200;2023-09-19T08:27:55;18.50;85.50
20337;DHT22;10326;53.660;10.200;2023-09-19T08:30:27;18.60;85.70
20337;DHT22;10326;53.660;10.200;2023-09-19T08:32:57;18.50;85.90
20337;DHT22;10326;53.660;10.200;2023-09-19T08:35:25;18.50;86.00
20337;DHT22;10326;53.660;10.200;2023-09-19T08:37:56;18.50;86.20
20337;DHT22;10326;53.660;10.200;2023-09-19T08:40:23;18.50;86.30
20337;DHT22;10326;53.660;10.200;2023-09-19T08:42:55;18.50;86.30
20337;DHT22;10326;53.660;10.200;2023-09-19T08:45:24;18.50;86.50
20337;DHT22;10326;53.660;10.200;2023-09-19T08:48:00;18.50;86.50
20337;DHT22;10326;53.660;10.200;2023-09-19T08:50:43;18.50;86.60
20337;DHT22;10326;53.660;10.200;2023-09-19T08:53:23;18.60;86.60
20337;DHT22;10326;53.660;10.200;2023-09-19T08:55:55;18.60;86.60
20337;DHT22;10326;53.660;10.200;2023-09-19T08:58:26;18.60;86.60
20337;DHT22;10326;53.660;10.200;2023-09-19T09:00:56;18.60;86.60
20337;DHT22;10326;53.660;10.200;2023-09-19T09:03:25;18.70;86.60
20337;DHT22;10326;53.660;10.200;2023-09-19T09:05:52;18.70;86.50
20337;DHT22;10326;53.660;10.200;2023-09-19T09:08:22;18.80;86.40
20337;DHT22;10326;53.660;10.200;2023-09-19T09:10:51;18.80;86.30
20337;DHT22;10326;53.660;10.200;2023-09-19T09:13:21;18.80;86.00
20337;DHT22;10326;53.660;10.200;2023-09-19T09:15:50;18.80;85.90
20337;DHT22;10326;53.660;10.200;2023-09-19T09:18:17;18.80;85.80
20337;DHT22;10326;53.660;10.200;2023-09-19T09:20:46;18.90;85.90
20337;DHT22;10326;53.660;10.200;2023-09-19T09:23:14;18.80;85.70
20337;DHT22;10326;53.660;10.200;2023-09-19T09:25:50;18.90;85.70
20337;DHT22;10326;53.660;10.200;2023-09-19T09:28:27;18.90;85.40
20337;DHT22;10326;53.660;10.200;2023-09-19T09:31:02;18.90;85.50
20337;DHT22;10326;53.660;10.200;2023-09-19T09:33:34;18.90;85.20
20337;DHT22;10326;53.660;10.200;2023-09-19T09:36:03;19.00;85.40
20337;DHT22;10326;53.660;10.200;2023-09-19T09:38:43;19.00;85.30
20337;DHT22;10326;53.660;10.200;2023-09-19T09:41:15;19.00;85.10
20337;DHT22;10326;53.660;10.200;2023-09-19T09:43:53;19.00;85.40
20337;DHT22;10326;53.660;10.200;2023-09-19T09:46:21;19.10;86.10
20337;DHT22;10326;53.660;10.200;2023-09-19T09:49:06;19.10;85.30
20337;DHT22;10326;53.660;10.200;2023-09-19T09:51:46;19.20;85.40
20337;DHT22;10326;53.660;10.200;2023-09-19T09:54:24;19.20;85.20
20337;DHT22;10326;53.660;10.200;2023-09-19T09:56:58;19.30;85.00
20337;DHT22;10326;53.660;10.200;2023-09-19T09:59:49;19.30;84.80
20337;DHT22;10326;53.660;10.200;2023-09-19T10:02:20;19.40;84.40
20337;DHT22;10326;53.660;10.200;2023-09-19T10:04:55;19.40;84.30
20337;DHT22;10326;53.660;10.200;2023-09-19T10:07:37;19.40;84.20
20337;DHT22;10326;53.660;10.200;2023-09-19T10:10:09;19.50;84.50
20337;DHT22;10326;53.660;10.200;2023-09-19T10:12:59;19.50;84.30
20337;DHT22;10326;53.660;10.200;2023-09-19T10:18:36;19.60;82.20
20337;DHT22;10326;53.660;10.200;2023-09-19T10:21:05;19.70;82.90
20337;DHT22;10326;53.660;10.200;2023-09-19T10:23:36;19.70;82.90
20337;DHT22;10326;53.660;10.200;2023-09-19T10:26:07;19.70;83.10
20337;DHT22;10326;53.660;10.200;2023-09-19T10:28:40;19.80;83.10
20337;DHT22;10326;53.660;10.200;2023-09-19T10:31:07;19.80;82.50
20337;DHT22;10326;53.660;10.200;2023-09-19T10:33:41;19.90;82.50
20337;DHT22;10326;53.660;10.200;2023-09-19T10:36:10;19.90;82.00
20337;DHT22;10326;53.660;10.200;2023-09-19T10:38:43;19.90;81.80
20337;DHT22;10326;53.660;10.200;2023-09-19T10:41:14;20.00;80.90
20337;DHT22;10326;53.660;10.200;2023-09-19T10:43:46;20.00;81.40
20337;DHT22;10326;53.660;10.200;2023-09-19T10:46:15;20.00;81.30
20337;DHT22;10326;53.660;10.200;2023-09-19T10:48:44;20.10;81.00
20337;DHT22;10326;53.660;10.200;2023-09-19T10:51:22;20.10;80.50
20337;DHT22;10326;53.660;10.200;2023-09-19T10:53:55;20.10;79.80
20337;DHT22;10326;53.660;10.200;2023-09-19T10:56:29;20.10;80.30
20337;DHT22;10326;53.660;10.200;2023-09-19T10:59:10;20.10;80.30
20337;DHT22;10326;53.660;10.200;2023-09-19T11:01:42;20.20;79.60
20337;DHT22;10326;53.660;10.200;2023-09-19T11:04:26;20.20;79.90
20337;DHT22;10326;53.660;10.200;2023-09-19T11:07:03;20.20;78.70
20337;DHT22;10326;53.660;10.200;2023-09-19T11:09:49;20.20;79.90
20337;DHT22;10326;53.660;10.200;2023-09-19T11:12:48;20.20;79.50
20337;DHT22;10326;53.660;10.200;2023-09-19T11:18:56;20.30;79.80
20337;DHT22;10326;53.660;10.200;2023-09-19T11:21:54;20.30;78.60
20337;DHT22;10326;53.660;10.200;2023-09-19T11:24:31;20.40;79.80
20337;DHT22;10326;53.660;10.200;2023-09-19T11:27:13;20.40;79.20
20337;DHT22;10326;53.660;10.200;2023-09-19T11:29:43;20.40;78.50
20337;DHT22;10326;53.660;10.200;2023-09-19T11:32:14;20.40;78.90
20337;DHT22;10326;53.660;10.200;2023-09-19T11:34:48;20.40;78.70
20337;DHT22;10326;53.660;10.200;2023-09-19T11:43:48;20.40;78.70
20337;DHT22;10326;53.660;10.200;2023-09-19T11:46:33;20.40;78.90
20337;DHT22;10326;53.660;10.200;2023-09-19T11:49:11;20.40;78.50
20337;DHT22;10326;53.660;10.200;2023-09-19T11:57:07;20.50;78.20
20337;DHT22;10326;53.660;10.200;2023-09-19T11:59:56;20.50;78.30
20337;DHT22;10326;53.660;10.200;2023-09-19T12:06:14;20.60;77.50
20337;DHT22;10326;53.660;10.200;2023-09-19T12:09:04;20.60;77.80
20337;DHT22;10326;53.660;10.200;2023-09-19T12:18:41;20.70;77.70
20337;DHT22;10326;53.660;10.200;2023-09-19T12:24:41;20.70;77.10
20337;DHT22;10326;53.660;10.200;2023-09-19T12:27:20;20.70;76.30
20337;DHT22;10326;53.660;10.200;2023-09-19T12:29:48;20.70;76.60
20337;DHT22;10326;53.660;10.200;2023-09-19T12:32:36;20.70;76.60
20337;DHT22;10326;53.660;10.200;2023-09-19T12:35:27;20.70;76.70
20337;DHT22;10326;53.660;10.200;2023-09-19T12:37:57;20.70;76.20
20337;DHT22;10326;53.660;10.200;2023-09-19T12:40:24;20.70;76.50
20337;DHT22;10326;53.660;10.200;2023-09-19T12:42:56;20.70;76.50
20337;DHT22;10326;53.660;10.200;2023-09-19T12:45:43;20.70;76.50
20337;DHT22;10326;53.660;10.200;2023-09-19T12:48:23;20.80;76.60
20337;DHT22;10326;53.660;10.200;2023-09-19T12:51:12;20.80;76.70
20337;DHT22;10326;53.660;10.200;2023-09-19T12:53:44;20.80;77.10
20337;DHT22;10326;53.660;10.200;2023-09-19T12:56:15;20.90;76.50
20337;DHT22;10326;53.660;10.200;2023-09-19T12:58:51;20.90;76.10
20337;DHT22;10326;53.660;10.200;2023-09-19T13:01:19;21.00;76.10
20337;DHT22;10326;53.660;10.200;2023-09-19T13:04:15;21.00;76.40
20337;DHT22;10326;53.660;10.200;2023-09-19T13:06:45;21.00;76.20
20337;DHT22;10326;53.660;10.200;2023-09-19T13:09:16;21.10;76.20
20337;DHT22;10326;53.660;10.200;2023-09-19T13:11:44;21.10;76.10
20337;DHT22;10326;53.660;10.200;2023-09-19T13:14:18;21.20;75.50
20337;DHT22;10326;53.660;10.200;2023-09-19T13:16:54;21.10;75.50
20337;DHT22;10326;53.660;10.200;2023-09-19T13:19:40;21.20;74.60
20337;DHT22;10326;53.660;10.200;2023-09-19T13:22:38;21.20;75.60
20337;DHT22;10326;53.660;10.200;2023-09-19T13:25:09;21.20;74.80
20337;DHT22;10326;53.660;10.200;2023-09-19T13:27:40;21.20;74.90
20337;DHT22;10326;53.660;10.200;2023-09-19T13:30:10;21.30;74.10
20337;DHT22;10326;53.660;10.200;2023-09-19T13:32:38;21.30;74.40
20337;DHT22;10326;53.660;10.200;2023-09-19T13:35:07;21.30;74.40
20337;DHT22;10326;53.660;10.200;2023-09-19T13:37:37;21.40;74.30
20337;DHT22;10326;53.660;10.200;2023-09-19T13:40:10;21.40;73.80
20337;DHT22;10326;53.660;10.200;2023-09-19T13:42:38;21.30;73.50
20337;DHT22;10326;53.660;10.200;2023-09-19T13:45:07;21.30;73.70
20337;DHT22;10326;53.660;10.200;2023-09-19T13:47:40;21.30;73.70
20337;DHT22;10326;53.660;10.200;2023-09-19T13:50:08;21.40;74.20
20337;DHT22;10326;53.660;10.200;2023-09-19T13:52:38;21.40;73.90
20337;DHT22;10326;53.660;10.200;2023-09-19T13:55:06;21.40;73.50
20337;DHT22;10326;53.660;10.200;2023-09-19T13:57:36;21.40;73.70
20337;DHT22;10326;53.660;10.200;2023-09-19T14:00:05;21.40;73.60
20337;DHT22;10326;53.660;10.200;2023-09-19T14:02:38;21.40;74.00
20337;DHT22;10326;53.660;10.200;2023-09-19T14:05:06;21.40;74.10
20337;DHT22;10326;53.660;10.200;2023-09-19T14:07:34;21.40;73.50
20337;DHT22;10326;53.660;10.200;2023-09-19T14:10:02;21.50;73.40
20337;DHT22;10326;53.660;10.200;2023-09-19T14:12:34;21.50;73.70
20337;DHT22;10326;53.660;10.200;2023-09-19T14:15:02;21.60;72.80
20337;DHT22;10326;53.660;10.200;2023-09-19T14:17:31;21.60;73.10
20337;DHT22;10326;53.660;10.200;2023-09-19T14:19:58;21.70;73.00
20337;DHT22;10326;53.660;10.200;2023-09-19T14:22:25;21.80;72.70
20337;DHT22;10326;53.660;10.200;2023-09-19T14:24:52;21.80;72.40
20337;DHT22;10326;53.660;10.200;2023-09-19T14:27:20;21.90;72.10
20337;DHT22;10326;53.660;10.200;2023-09-19T14:29:48;21.90;71.60
20337;DHT22;10326;53.660;10.200;2023-09-19T14:32:16;21.90;72.00
20337;DHT22;10326;53.660;10.200;2023-09-19T14:34:43;21.90;71.50
20337;DHT22;10326;53.660;10.200;2023-09-19T14:37:11;21.90;72.00
20337;DHT22;10326;53.660;10.200;2023-09-19T14:39:39;22.00;71.70
20337;DHT22;10326;53.660;10.200;2023-09-19T14:42:10;22.00;71.60
20337;DHT22;10326;53.660;10.200;2023-09-19T14:44:38;22.00;71.20
20337;DHT22;10326;53.660;10.200;2023-09-19T14:47:08;22.00;70.80
20337;DHT22;10326;53.660;10.200;2023-09-19T14:49:39;22.00;70.70
20337;DHT22;10326;53.660;10.200;2023-09-19T14:52:08;22.00;71.00
20337;DHT22;10326;53.660;10.200;2023-09-19T14:54:37;22.00;70.90
20337;DHT22;10326;53.660;10.200;2023-09-19T14:57:07;22.00;70.90
20337;DHT22;10326;53.660;10.200;2023-09-19T14:59:35;22.00;71.10
20337;DHT22;10326;53.660;10.200;2023-09-19T15:02:04;21.90;70.90
20337;DHT22;10326;53.660;10.200;2023-09-19T15:04:33;21.90;70.90
20337;DHT22;10326;53.660;10.200;2023-09-19T15:07:00;21.90;70.60
20337;DHT22;10326;53.660;10.200;2023-09-19T15:09:28;21.90;70.60
20337;DHT22;10326;53.660;10.200;2023-09-19T15:11:57;21.80;70.80
20337;DHT22;10326;53.660;10.200;2023-09-19T15:14:26;21.80;70.90
20337;DHT22;10326;53.660;10.200;2023-09-19T15:16:57;21.70;71.10
20337;DHT22;10326;53.660;10.200;2023-09-19T15:19:24;21.70;71.00
20337;DHT22;10326;53.660;10.200;2023-09-19T15:21:53;21.70;71.20
20337;DHT22;10326;53.660;10.200;2023-09-19T15:24:20;21.60;71.10
20337;DHT22;10326;53.660;10.200;2023-09-19T15:26:48;21.60;71.30
20337;DHT22;10326;53.660;10.200;2023-09-19T15:29:16;21.60;71.30
20337;DHT22;10326;53.660;10.200;2023-09-19T15:31:45;21.60;71.60
20337;DHT22;10326;53.660;10.200;2023-09-19T15:34:12;21.60;71.60
20337;DHT22;10326;53.660;10.200;2023-09-19T15:36:41;21.60;71.60
20337;DHT22;10326;53.660;10.200;2023-09-19T15:39:10;21.60;71.70
20337;DHT22;10326;53.660;10.200;2023-09-19T15:41:39;21.50;71.50
20337;DHT22;10326;53.660;10.200;2023-09-19T15:44:11;21.60;71.60
20337;DHT22;10326;53.660;10.200;2023-09-19T15:46:40;21.50;71.30
20337;DHT22;10326;53.660;10.200;2023-09-19T15:49:07;21.50;71.60
20337;DHT22;10326;53.660;10.200;2023-09-19T15:51:34;21.50;71.80
20337;DHT22;10326;53.660;10.200;2023-09-19T15:54:07;21.50;71.90
20337;DHT22;10326;53.660;10.200;2023-09-19T15:56:39;21.50;72.00
20337;DHT22;10326;53.660;10.200;2023-09-19T15:59:07;21.50;72.10
20337;DHT22;10326;53.660;10.200;2023-09-19T16:01:38;21.50;72.10
20337;DHT22;10326;53.660;10.200;2023-09-19T16:04:06;21.50;72.00
20337;DHT22;10326;53.660;10.200;2023-09-19T16:06:36;21.50;71.90
20337;DHT22;10326;53.660;10.200;2023-09-19T16:09:04;21.50;72.20
20337;DHT22;10326;53.660;10.200;2023-09-19T16:11:34;21.50;72.10
20337;DHT22;10326;53.660;10.200;2023-09-19T16:14:02;21.50;72.00
20337;DHT22;10326;53.660;10.200;2023-09-19T16:16:31;21.40;72.10
20337;DHT22;10326;53.660;10.200;2023-09-19T16:19:01;21.40;72.10
20337;DHT22;10326;53.660;10.200;2023-09-19T16:21:31;21.40;72.10
20337;DHT22;10326;53.660;10.200;2023-09-19T16:24:00;21.40;72.00
20337;DHT22;10326;53.660;10.200;2023-09-19T16:26:28;21.40;72.00
20337;DHT22;10326;53.660;10.200;2023-09-19T16:28:58;21.40;72.00
20337;DHT22;10326;53.660;10.200;2023-09-19T16:31:27;21.40;71.60
20337;DHT22;10326;53.660;10.200;2023-09-19T16:33:55;21.40;71.80
20337;DHT22;10326;53.660;10.200;2023-09-19T16:36:23;21.40;71.90
20337;DHT22;10326;53.660;10.200;2023-09-19T16:38:51;21.40;71.90